Time;durP1;ratioP1;P1;durP2;ratioP2;P2;SDS_P1;SDS_P2;PMS_P1;PMS_P2;Temp;Humidity;BMP_temperature;BMP_pressure;BME280_temperature;BME280_humidity;BME280_pressure;Samples;Min_cycle;Max_cycle;Signal;HPM_P1;HPM_P2
2020/12/12 00:01:42;;;;;;;8.35;3.00;;;27.00;44.80;;;;;;5073919;28;20025;-49
2020/12/12 00:04:09;;;;;;;9.60;3.30;;;27.00;44.70;;;;;;5073806;28;20039;-49
2020/12/12 00:06:35;;;;;;;14.63;3.15;;;27.00;44.70;;;;;;5073596;28;20099;-49
2020/12/12 00:09:02;;;;;;;13.23;2.80;;;27.00;44.50;;;;;;5072322;28;20048;-49
2020/12/12 00:11:29;;;;;;;10.18;3.20;;;27.00;44.50;;;;;;5073596;28;20111;-49
2020/12/12 00:13:55;;;;;;;17.20;3.78;;;27.00;44.50;;;;;;5072786;28;20353;-48
2020/12/12 00:16:22;;;;;;;8.82;3.25;;;27.00;44.40;;;;;;5072903;28;20055;-49
2020/12/12 00:18:48;;;;;;;9.63;2.97;;;27.00;44.40;;;;;;5072683;28;20056;-49
2020/12/12 00:21:21;;;;;;;9.65;2.90;;;27.00;44.30;;;;;;5072429;28;20016;-49
2020/12/12 00:23:48;;;;;;;9.90;3.10;;;27.00;44.30;;;;;;5071223;28;20444;-49
2020/12/12 00:26:21;;;;;;;14.80;3.50;;;27.00;44.40;;;;;;5073644;28;20028;-49
2020/12/12 00:28:48;;;;;;;10.07;2.92;;;27.00;44.30;;;;;;5073653;28;20112;-49
2020/12/12 00:31:21;;;;;;;13.60;2.95;;;27.00;44.30;;;;;;5073686;28;20054;-48
2020/12/12 00:33:48;;;;;;;12.98;2.90;;;27.10;44.20;;;;;;5072408;28;20028;-50
2020/12/12 00:36:15;;;;;;;11.50;3.10;;;27.10;44.20;;;;;;5071113;28;20031;-50
2020/12/12 00:38:41;;;;;;;11.88;2.75;;;27.10;44.20;;;;;;5070945;28;20029;-50
2020/12/12 00:41:08;;;;;;;15.48;3.10;;;27.10;44.10;;;;;;5070839;28;20021;-49
2020/12/12 00:43:34;;;;;;;17.60;3.22;;;27.10;44.00;;;;;;5070243;28;20075;-50
2020/12/12 00:46:04;;;;;;;21.42;3.20;;;27.10;44.00;;;;;;5071420;28;20456;-49
2020/12/12 00:48:30;;;;;;;13.43;2.85;;;27.10;44.10;;;;;;5069880;28;20024;-49
2020/12/12 00:50:57;;;;;;;14.95;3.08;;;27.10;44.10;;;;;;5073404;28;20048;-49
2020/12/12 00:53:23;;;;;;;9.20;2.90;;;27.00;44.10;;;;;;5073565;28;20032;-50
2020/12/12 00:55:53;;;;;;;16.70;2.88;;;27.10;44.20;;;;;;5073485;28;20433;-50
2020/12/12 00:58:20;;;;;;;10.82;2.75;;;27.00;44.00;;;;;;5073568;28;20101;-49
2020/12/12 01:00:46;;;;;;;7.80;2.58;;;27.00;44.20;;;;;;5073220;28;20345;-49
2020/12/12 01:03:13;;;;;;;12.95;2.75;;;27.00;44.30;;;;;;5073017;28;20045;-49
2020/12/12 01:05:40;;;;;;;9.05;2.70;;;26.90;44.20;;;;;;5073130;28;20028;-49
2020/12/12 01:08:07;;;;;;;8.73;2.97;;;26.90;44.20;;;;;;5073489;28;20078;-49
2020/12/12 01:10:34;;;;;;;7.70;2.47;;;26.90;44.30;;;;;;5073404;28;20024;-49
2020/12/12 01:13:00;;;;;;;12.90;2.50;;;26.90;44.40;;;;;;5072654;28;20344;-49
2020/12/12 01:15:27;;;;;;;10.52;3.30;;;26.80;44.40;;;;;;5073270;28;20469;-49
2020/12/12 01:17:53;;;;;;;11.60;2.75;;;26.80;45.20;;;;;;5070734;28;20078;-50
2020/12/12 01:20:20;;;;;;;16.45;3.58;;;26.80;44.50;;;;;;5071919;28;20031;-50
2020/12/12 01:22:49;;;;;;;8.77;2.85;;;26.70;44.50;;;;;;5073179;28;20116;-49
2020/12/12 01:25:15;;;;;;;11.80;2.95;;;26.60;44.50;;;;;;5073315;28;20028;-49
2020/12/12 01:27:42;;;;;;;8.40;3.08;;;26.60;44.60;;;;;;5072691;28;20066;-49
2020/12/12 01:30:08;;;;;;;19.55;4.90;;;26.50;44.70;;;;;;5073244;28;20035;-49
2020/12/12 01:32:35;;;;;;;45.40;17.77;;;26.50;44.90;;;;;;5059983;28;20418;-49
2020/12/12 01:35:01;;;;;;;50.15;20.58;;;26.40;45.00;;;;;;5070089;28;20029;-49
2020/12/12 01:37:28;;;;;;;50.90;21.45;;;26.40;45.20;;;;;;5072546;28;20452;-49
2020/12/12 01:39:54;;;;;;;56.30;22.40;;;26.30;45.20;;;;;;5072787;28;20017;-49
2020/12/12 01:42:21;;;;;;;49.58;20.98;;;26.20;45.50;;;;;;5072720;28;20066;-51
2020/12/12 01:44:48;;;;;;;56.70;20.08;;;26.20;45.60;;;;;;5073223;28;20051;-50
2020/12/12 01:47:14;;;;;;;49.42;19.05;;;26.20;45.60;;;;;;5073192;28;20013;-50
2020/12/12 01:49:41;;;;;;;48.20;18.70;;;26.10;45.60;;;;;;5072210;28;20020;-50
2020/12/12 01:52:08;;;;;;;51.47;18.17;;;26.10;45.80;;;;;;5073014;28;20493;-50
2020/12/12 01:54:35;;;;;;;36.78;16.95;;;26.00;45.80;;;;;;5072934;28;20091;-50
2020/12/12 01:57:06;;;;;;;40.13;16.85;;;25.90;45.90;;;;;;5075990;28;20132;-50
2020/12/12 01:59:32;;;;;;;51.90;15.73;;;25.90;46.00;;;;;;5076160;28;20062;-50
2020/12/12 02:02:02;;;;;;;40.50;15.98;;;25.90;46.20;;;;;;5076401;28;20089;-50
2020/12/12 02:04:32;;;;;;;39.72;15.40;;;25.80;46.20;;;;;;5076442;28;20017;-50
2020/12/12 02:06:59;;;;;;;41.00;15.80;;;25.80;46.30;;;;;;5076684;28;20052;-50
2020/12/12 02:09:25;;;;;;;40.90;16.02;;;25.70;46.40;;;;;;5076219;28;20029;-50
2020/12/12 02:11:52;;;;;;;40.05;14.23;;;25.70;46.40;;;;;;5075712;28;20031;-50
2020/12/12 02:14:18;;;;;;;34.20;12.98;;;25.60;46.30;;;;;;5075914;28;20017;-50
2020/12/12 02:17:01;;;;;;;35.38;13.30;;;25.60;46.50;;;;;;5076003;28;20020;-51
2020/12/12 02:19:27;;;;;;;29.60;12.73;;;25.50;46.50;;;;;;5076304;28;20028;-50
2020/12/12 02:21:55;;;;;;;30.42;11.07;;;25.50;46.60;;;;;;5075917;28;20028;-51
2020/12/12 02:24:22;;;;;;;30.10;11.68;;;25.40;46.70;;;;;;5076044;28;20021;-50
2020/12/12 02:26:49;;;;;;;31.45;11.23;;;25.40;46.90;;;;;;5075942;28;20021;-51
2020/12/12 02:29:16;;;;;;;34.17;10.90;;;25.30;47.10;;;;;;5075698;28;20052;-50
2020/12/12 02:31:44;;;;;;;21.42;9.63;;;25.30;47.20;;;;;;5075393;28;20067;-50
2020/12/12 02:34:10;;;;;;;29.10;9.55;;;25.30;47.40;;;;;;5074736;28;20016;-50
2020/12/12 02:36:40;;;;;;;27.17;9.60;;;25.30;47.40;;;;;;5075598;28;20415;-50
2020/12/12 02:39:09;;;;;;;20.33;8.98;;;25.30;47.60;;;;;;5075409;28;20051;-50
2020/12/12 02:41:36;;;;;;;22.73;9.55;;;25.30;47.70;;;;;;5074750;28;20052;-50
2020/12/12 02:44:03;;;;;;;25.15;8.50;;;25.40;47.80;;;;;;5074012;28;20047;-50
2020/12/12 02:46:29;;;;;;;30.95;9.05;;;25.50;48.10;;;;;;5075690;28;20086;-50
2020/12/12 02:48:56;;;;;;;32.13;8.48;;;25.50;48.10;;;;;;5075884;28;20100;-51
2020/12/12 02:51:22;;;;;;;24.98;7.78;;;25.60;48.00;;;;;;5075120;28;20122;-51
2020/12/12 02:53:49;;;;;;;24.42;7.50;;;25.70;48.00;;;;;;5074895;28;20039;-51
2020/12/12 02:56:19;;;;;;;20.50;7.63;;;25.80;48.10;;;;;;5075481;28;20102;-50
2020/12/12 02:58:46;;;;;;;21.15;7.45;;;25.90;47.90;;;;;;5075460;28;20017;-50
2020/12/12 03:01:12;;;;;;;26.23;6.60;;;26.00;47.80;;;;;;5075352;28;20048;-51
2020/12/12 03:03:39;;;;;;;26.52;6.65;;;26.10;47.60;;;;;;5075238;28;20025;-50
2020/12/12 03:06:05;;;;;;;17.35;6.40;;;26.10;47.30;;;;;;5074726;28;20370;-51
2020/12/12 03:08:32;;;;;;;20.48;6.35;;;26.20;47.10;;;;;;5075026;28;20028;-51
2020/12/12 03:10:59;;;;;;;21.20;6.38;;;26.30;47.20;;;;;;5075170;28;20024;-51
2020/12/12 03:13:25;;;;;;;20.77;6.05;;;26.40;47.20;;;;;;5075103;28;20361;-51
2020/12/12 03:15:52;;;;;;;19.20;5.30;;;26.40;47.10;;;;;;5075158;28;20032;-51
2020/12/12 03:18:18;;;;;;;16.23;5.05;;;26.50;47.10;;;;;;5074897;28;20026;-50
2020/12/12 03:20:45;;;;;;;16.00;5.85;;;26.50;47.10;;;;;;5074546;28;20020;-51
2020/12/12 03:23:11;;;;;;;19.08;4.95;;;26.50;47.00;;;;;;5074404;28;20093;-51
2020/12/12 03:25:39;;;;;;;12.98;4.90;;;26.60;47.00;;;;;;5074868;28;20024;-51
2020/12/12 03:28:06;;;;;;;18.42;5.30;;;26.60;46.90;;;;;;5073751;28;20510;-51
2020/12/12 03:30:34;;;;;;;14.45;4.45;;;26.60;46.80;;;;;;5074763;28;20470;-51
2020/12/12 03:33:01;;;;;;;13.90;4.25;;;26.60;46.70;;;;;;5074269;28;20063;-51
2020/12/12 03:35:28;;;;;;;20.92;5.18;;;26.60;46.70;;;;;;5074697;28;20074;-51
2020/12/12 03:37:55;;;;;;;12.73;4.60;;;26.60;46.60;;;;;;5074140;28;20464;-50
2020/12/12 03:40:23;;;;;;;12.85;3.88;;;26.60;46.60;;;;;;5074585;28;20071;-51
2020/12/12 03:42:53;;;;;;;12.52;3.95;;;26.50;46.70;;;;;;5073843;28;20472;-51
2020/12/12 03:45:21;;;;;;;16.88;4.07;;;26.50;46.50;;;;;;5073511;28;20070;-50
2020/12/12 03:47:48;;;;;;;19.77;4.03;;;26.50;46.70;;;;;;5073029;28;20103;-51
2020/12/12 03:50:15;;;;;;;18.92;4.30;;;26.40;46.80;;;;;;5069156;28;20457;-50
2020/12/12 03:52:42;;;;;;;18.08;4.50;;;26.40;47.00;;;;;;5073362;28;20027;-50
2020/12/12 03:55:09;;;;;;;16.83;3.80;;;26.40;47.10;;;;;;5074263;28;20345;-50
2020/12/12 03:57:36;;;;;;;12.13;3.85;;;26.40;47.10;;;;;;5058147;28;20021;-50
2020/12/12 04:00:05;;;;;;;11.05;3.22;;;26.30;47.10;;;;;;5053995;28;20024;-50
2020/12/12 04:02:31;;;;;;;17.13;3.83;;;26.20;47.00;;;;;;5055961;28;20021;-50
2020/12/12 04:04:58;;;;;;;12.02;3.28;;;26.20;47.10;;;;;;5073798;28;20024;-50
2020/12/12 04:07:24;;;;;;;15.18;3.75;;;26.10;47.10;;;;;;5074122;28;20021;-50
2020/12/12 04:09:51;;;;;;;11.80;3.70;;;26.00;47.20;;;;;;5064426;28;20025;-50
2020/12/12 04:12:17;;;;;;;10.93;3.30;;;26.00;47.20;;;;;;5071213;28;20475;-50
2020/12/12 04:14:44;;;;;;;13.60;3.13;;;25.90;47.20;;;;;;5074008;28;20017;-50
2020/12/12 04:17:11;;;;;;;13.52;3.15;;;25.90;47.20;;;;;;5074083;28;20016;-50
2020/12/12 04:19:37;;;;;;;10.90;3.03;;;25.80;47.20;;;;;;5073503;28;20023;-50
2020/12/12 04:22:04;;;;;;;7.03;2.88;;;25.70;47.20;;;;;;5062298;28;20033;-50
2020/12/12 04:24:30;;;;;;;14.48;3.15;;;25.70;47.30;;;;;;5053898;28;20028;-50
2020/12/12 04:26:57;;;;;;;8.65;3.17;;;25.60;47.30;;;;;;5053846;28;20025;-49
2020/12/12 04:29:23;;;;;;;16.23;5.65;;;25.60;47.40;;;;;;5053581;28;20036;-49
2020/12/12 04:31:50;;;;;;;10.80;3.33;;;25.50;47.40;;;;;;5053540;28;20372;-50
2020/12/12 04:34:17;;;;;;;9.45;3.13;;;25.50;47.50;;;;;;5053466;28;20025;-50
2020/12/12 04:36:43;;;;;;;12.18;3.53;;;25.40;47.30;;;;;;5053630;28;20032;-50
2020/12/12 04:39:10;;;;;;;9.05;3.47;;;25.40;47.30;;;;;;5064304;28;20043;-50
2020/12/12 04:41:41;;;;;;;11.65;3.22;;;25.30;47.30;;;;;;5073293;28;20028;-50
2020/12/12 04:44:08;;;;;;;7.40;2.77;;;25.40;47.40;;;;;;5073776;28;20025;-49
2020/12/12 04:46:38;;;;;;;18.48;3.38;;;25.30;47.20;;;;;;5068520;28;20264;-50
2020/12/12 04:49:04;;;;;;;14.27;3.28;;;25.30;47.60;;;;;;5059764;28;20179;-50
2020/12/12 04:51:31;;;;;;;9.55;2.83;;;25.30;48.00;;;;;;5053348;28;20063;-49
2020/12/12 04:53:58;;;;;;;8.65;2.97;;;25.40;48.20;;;;;;5073262;28;20082;-50
2020/12/12 04:56:26;;;;;;;10.68;2.58;;;25.40;48.30;;;;;;5073612;28;20383;-50
2020/12/12 04:58:53;;;;;;;11.02;3.30;;;25.40;48.20;;;;;;5073537;28;20025;-50
2020/12/12 05:01:21;;;;;;;6.43;2.83;;;25.40;48.10;;;;;;5073241;28;20024;-50
2020/12/12 05:03:48;;;;;;;10.48;2.90;;;25.40;48.10;;;;;;5073323;28;20029;-50
2020/12/12 05:06:14;;;;;;;6.85;2.58;;;25.50;48.10;;;;;;5073566;28;20060;-50
2020/12/12 05:08:41;;;;;;;10.02;2.97;;;25.50;48.00;;;;;;5072797;28;20025;-49
2020/12/12 05:11:07;;;;;;;18.88;9.02;;;25.50;47.90;;;;;;5073186;28;20033;-50
2020/12/12 05:13:34;;;;;;;16.67;7.45;;;25.50;47.90;;;;;;5073198;28;20020;-50
2020/12/12 05:16:01;;;;;;;14.32;4.10;;;25.50;47.70;;;;;;5073124;28;20376;-50
2020/12/12 05:18:28;;;;;;;14.60;4.45;;;25.50;47.70;;;;;;5073418;28;20111;-50
2020/12/12 05:20:55;;;;;;;13.98;3.72;;;25.50;47.70;;;;;;5072976;28;20457;-50
2020/12/12 05:23:23;;;;;;;10.15;3.65;;;25.40;47.50;;;;;;5072945;28;20032;-50
2020/12/12 05:25:51;;;;;;;10.70;3.88;;;25.40;47.50;;;;;;5073008;28;20082;-50
2020/12/12 05:28:21;;;;;;;11.45;3.67;;;25.40;48.20;;;;;;5072591;28;20049;-50
2020/12/12 05:30:49;;;;;;;10.55;3.58;;;25.40;47.50;;;;;;5074185;28;20040;-50
2020/12/12 05:33:18;;;;;;;9.50;3.25;;;25.40;47.60;;;;;;5077133;28;20025;-50
2020/12/12 05:35:45;;;;;;;10.30;2.90;;;25.30;47.40;;;;;;5076483;28;20483;-50
2020/12/12 05:38:12;;;;;;;7.00;3.15;;;25.30;47.40;;;;;;5076832;28;20020;-50
2020/12/12 05:40:42;;;;;;;7.88;2.97;;;25.30;47.40;;;;;;5076791;28;20020;-49
2020/12/12 05:43:13;;;;;;;14.82;3.28;;;25.30;47.40;;;;;;5076368;28;20086;-50
2020/12/12 05:45:41;;;;;;;13.43;3.07;;;25.30;47.40;;;;;;5076928;28;20020;-50
2020/12/12 05:48:12;;;;;;;8.80;2.88;;;25.30;47.40;;;;;;5076138;28;20028;-50
2020/12/12 05:50:39;;;;;;;8.60;2.55;;;25.30;47.30;;;;;;5076721;28;20027;-50
2020/12/12 05:53:06;;;;;;;7.65;2.40;;;25.40;47.40;;;;;;5076586;28;20034;-50
2020/12/12 05:55:34;;;;;;;6.43;2.33;;;25.40;47.30;;;;;;5076593;28;20025;-50
2020/12/12 05:58:02;;;;;;;5.38;2.38;;;25.40;47.20;;;;;;5075356;28;20135;-50
2020/12/12 06:00:31;;;;;;;9.30;2.72;;;25.50;47.20;;;;;;5074398;28;20337;-51
2020/12/12 06:02:58;;;;;;;7.72;2.28;;;25.50;46.80;;;;;;5074938;28;20067;-50
2020/12/12 06:05:29;;;;;;;10.75;2.40;;;25.60;46.50;;;;;;5076015;28;20031;-50
2020/12/12 06:07:58;;;;;;;11.90;2.28;;;25.60;46.20;;;;;;5075456;28;20024;-50
2020/12/12 06:10:28;;;;;;;9.15;2.10;;;25.70;46.40;;;;;;5076395;28;20104;-50
2020/12/12 06:13:05;;;;;;;5.30;1.90;;;25.70;46.30;;;;;;5075720;28;20028;-50
2020/12/12 06:15:40;;;;;;;5.45;2.00;;;25.80;46.10;;;;;;5066891;28;20409;-50
2020/12/12 06:18:19;;;;;;;7.40;2.03;;;25.80;46.10;;;;;;5054901;28;20025;-50
2020/12/12 06:20:48;;;;;;;7.43;2.30;;;25.90;46.00;;;;;;5056372;28;20055;-50
2020/12/12 06:23:16;;;;;;;8.05;1.73;;;25.90;46.00;;;;;;5073248;28;20391;-50
2020/12/12 06:25:42;;;;;;;4.28;1.73;;;26.00;45.90;;;;;;5076059;28;20074;-50
2020/12/12 06:28:15;;;;;;;5.45;1.77;;;26.10;45.90;;;;;;5075481;28;20020;-50
2020/12/12 06:30:43;;;;;;;6.60;1.83;;;26.10;45.70;;;;;;5075484;28;20031;-50
2020/12/12 06:33:09;;;;;;;8.43;2.05;;;26.20;45.80;;;;;;5074755;28;20031;-50
2020/12/12 06:35:38;;;;;;;9.88;1.90;;;26.20;45.70;;;;;;5057614;28;20028;-50
2020/12/12 06:38:29;;;;;;;4.53;1.70;;;26.20;45.50;;;;;;5075709;28;20024;-50
2020/12/12 06:40:58;;;;;;;5.25;1.60;;;26.30;45.70;;;;;;5075589;28;20448;-50
2020/12/12 06:43:35;;;;;;;4.82;1.77;;;26.30;45.60;;;;;;5074982;28;20036;-50
2020/12/12 06:46:06;;;;;;;5.53;1.70;;;26.40;45.20;;;;;;5075001;28;20024;-50
2020/12/12 06:48:34;;;;;;;7.93;1.60;;;26.40;44.60;;;;;;5074908;28;20443;-50
2020/12/12 06:51:02;;;;;;;5.13;1.80;;;26.40;44.40;;;;;;5075300;28;20257;-50
2020/12/12 06:53:31;;;;;;;9.45;1.88;;;26.40;44.20;;;;;;5075015;28;20051;-50
2020/12/12 06:56:16;;;;;;;4.70;1.60;;;26.40;44.10;;;;;;5074790;28;20504;-51
2020/12/12 06:58:43;;;;;;;6.35;1.70;;;26.30;43.70;;;;;;5074184;28;20021;-50
2020/12/12 07:01:32;;;;;;;7.65;1.75;;;26.30;43.80;;;;;;5074678;28;20033;-50
2020/12/12 07:04:07;;;;;;;3.42;1.70;;;26.30;43.90;;;;;;5075314;28;20379;-50
2020/12/12 07:06:34;;;;;;;4.30;1.65;;;26.20;43.80;;;;;;5075082;28;20040;-50
2020/12/12 07:09:09;;;;;;;5.25;1.55;;;26.20;43.80;;;;;;5074094;28;20016;-50
2020/12/12 07:11:37;;;;;;;4.70;1.60;;;26.10;43.80;;;;;;5074964;28;20073;-50
2020/12/12 07:14:04;;;;;;;2.90;1.42;;;26.10;43.90;;;;;;5073275;28;20024;-50
2020/12/12 07:16:30;;;;;;;6.10;1.60;;;26.00;43.90;;;;;;5073152;28;20025;-50
2020/12/12 07:18:57;;;;;;;6.30;1.63;;;25.90;43.90;;;;;;5074803;28;20353;-50
2020/12/12 07:21:24;;;;;;;3.47;1.50;;;25.90;44.00;;;;;;5074663;28;20512;-50
2020/12/12 07:23:51;;;;;;;5.93;1.75;;;25.80;44.10;;;;;;5074210;28;20037;-49
2020/12/12 07:26:17;;;;;;;8.75;1.85;;;25.80;44.20;;;;;;5074151;28;20025;-48
2020/12/12 07:28:44;;;;;;;8.38;1.70;;;25.70;44.50;;;;;;5074812;28;20020;-48
2020/12/12 07:31:10;;;;;;;3.83;1.80;;;25.70;45.00;;;;;;5074409;28;20436;-48
2020/12/12 07:33:37;;;;;;;4.80;1.80;;;25.60;45.20;;;;;;5074575;28;20016;-48
2020/12/12 07:36:04;;;;;;;9.38;1.90;;;25.60;45.50;;;;;;5074716;28;20046;-49
2020/12/12 07:38:37;;;;;;;5.53;1.75;;;25.50;45.60;;;;;;5074290;28;20465;-48
2020/12/12 07:41:12;;;;;;;7.55;1.92;;;25.40;45.60;;;;;;5074681;28;20020;-48
2020/12/12 07:43:56;;;;;;;7.57;2.13;;;25.30;45.60;;;;;;5074094;28;20036;-48
2020/12/12 07:46:37;;;;;;;7.13;1.88;;;25.30;45.70;;;;;;5073806;28;20116;-48
2020/12/12 07:49:05;;;;;;;6.53;1.80;;;25.20;45.70;;;;;;5074127;28;20387;-48
2020/12/12 07:51:32;;;;;;;8.05;2.10;;;25.10;45.80;;;;;;5073963;28;20027;-48
2020/12/12 07:53:59;;;;;;;10.05;1.85;;;25.10;45.90;;;;;;5073323;28;20476;-48
2020/12/12 07:56:26;;;;;;;7.90;2.22;;;24.90;45.90;;;;;;5074441;28;20074;-48
2020/12/12 07:59:06;;;;;;;5.47;1.90;;;24.90;46.10;;;;;;5073896;28;20023;-48
2020/12/12 08:01:33;;;;;;;5.25;2.00;;;24.80;46.10;;;;;;5073851;28;20415;-48
2020/12/12 08:03:59;;;;;;;7.78;1.90;;;24.70;46.30;;;;;;5073438;28;20124;-48
2020/12/12 08:06:27;;;;;;;6.90;1.70;;;24.60;46.40;;;;;;5072852;28;20360;-48
2020/12/12 08:08:56;;;;;;;4.85;1.77;;;24.50;46.40;;;;;;5073577;28;20078;-48
2020/12/12 08:11:23;;;;;;;4.50;1.60;;;24.40;46.60;;;;;;5074078;28;20358;-49
2020/12/12 08:13:50;;;;;;;5.07;1.80;;;24.40;46.80;;;;;;5073630;28;20057;-49
2020/12/12 08:16:36;;;;;;;4.75;1.80;;;24.30;46.90;;;;;;5072276;28;20436;-48
2020/12/12 08:19:03;;;;;;;3.28;1.60;;;24.20;47.00;;;;;;5073689;28;20407;-48
2020/12/12 08:21:30;;;;;;;4.85;1.67;;;24.10;47.20;;;;;;5073353;28;20024;-48
2020/12/12 08:23:57;;;;;;;5.15;1.77;;;24.00;47.30;;;;;;5073575;28;20056;-49
2020/12/12 08:26:24;;;;;;;4.53;1.80;;;23.90;47.60;;;;;;5073958;28;20024;-48
2020/12/12 08:28:51;;;;;;;7.65;1.95;;;23.90;47.70;;;;;;5073323;28;20140;-49
2020/12/12 08:31:20;;;;;;;3.67;1.80;;;23.80;47.80;;;;;;5053552;28;20053;-48
2020/12/12 08:33:56;;;;;;;3.55;1.42;;;23.70;47.80;;;;;;5058727;28;20103;-48
2020/12/12 08:36:28;;;;;;;3.63;1.50;;;23.60;48.00;;;;;;5073644;28;20035;-48
2020/12/12 08:39:06;;;;;;;5.07;1.80;;;23.60;48.10;;;;;;5073142;28;20023;-48
2020/12/12 08:41:37;;;;;;;5.00;1.70;;;23.50;48.20;;;;;;5073774;28;20027;-48
2020/12/12 08:44:05;;;;;;;2.80;1.55;;;23.40;48.30;;;;;;5073026;28;20029;-48
2020/12/12 08:46:32;;;;;;;5.07;1.58;;;23.30;48.40;;;;;;5073431;28;20105;-48
2020/12/12 08:48:59;;;;;;;4.00;1.58;;;23.30;48.60;;;;;;5073723;28;20020;-49
2020/12/12 08:51:30;;;;;;;3.13;1.70;;;23.20;48.70;;;;;;5073348;28;20108;-48
2020/12/12 08:53:59;;;;;;;3.70;1.60;;;23.10;48.70;;;;;;5072955;28;20028;-48
2020/12/12 08:56:26;;;;;;;4.97;1.70;;;23.10;48.90;;;;;;5073353;28;20408;-49
2020/12/12 08:59:06;;;;;;;2.75;1.60;;;23.00;49.00;;;;;;5073608;28;20020;-49
2020/12/12 09:01:43;;;;;;;1.98;1.20;;;22.90;49.10;;;;;;5073330;28;20066;-48
2020/12/12 09:04:31;;;;;;;5.88;1.50;;;22.90;49.20;;;;;;5073651;28;20025;-48
2020/12/12 09:06:58;;;;;;;3.92;1.58;;;22.80;49.20;;;;;;5077182;28;20043;-49
2020/12/12 09:09:31;;;;;;;2.53;1.50;;;22.70;49.30;;;;;;5076006;28;20094;-49
2020/12/12 09:12:05;;;;;;;3.08;1.33;;;22.60;49.40;;;;;;5076765;28;20078;-48
2020/12/12 09:14:33;;;;;;;3.08;1.70;;;22.60;49.50;;;;;;5077293;28;20016;-49
2020/12/12 09:17:03;;;;;;;4.68;1.73;;;22.50;49.60;;;;;;5076936;28;20025;-49
2020/12/12 09:19:30;;;;;;;6.38;1.83;;;22.50;49.80;;;;;;5077333;28;20017;-48
2020/12/12 09:21:58;;;;;;;3.10;1.60;;;22.40;49.80;;;;;;5077116;28;20029;-49
2020/12/12 09:24:25;;;;;;;4.35;1.73;;;22.40;50.00;;;;;;5075963;28;20035;-49
2020/12/12 09:26:55;;;;;;;2.78;1.52;;;22.30;50.00;;;;;;5077445;28;20326;-49
2020/12/12 09:29:22;;;;;;;4.30;1.67;;;22.20;50.10;;;;;;5077179;28;20437;-49
2020/12/12 09:31:52;;;;;;;3.03;1.58;;;22.20;50.10;;;;;;5075964;28;20044;-48
2020/12/12 09:34:18;;;;;;;2.95;1.63;;;22.10;50.20;;;;;;5076868;28;20032;-48
2020/12/12 09:36:47;;;;;;;2.42;1.60;;;22.10;50.30;;;;;;5077060;28;20017;-48
2020/12/12 09:39:14;;;;;;;2.67;1.35;;;22.00;50.40;;;;;;5076194;28;20017;-49
2020/12/12 09:41:40;;;;;;;2.70;1.30;;;21.90;50.40;;;;;;5076847;28;20416;-49
2020/12/12 09:44:07;;;;;;;3.33;1.58;;;21.90;50.60;;;;;;5076047;28;20479;-49
2020/12/12 09:46:34;;;;;;;2.50;1.48;;;21.90;50.60;;;;;;5076245;28;20028;-48
2020/12/12 09:49:01;;;;;;;2.65;1.50;;;21.80;50.70;;;;;;5076349;28;20024;-49
2020/12/12 09:51:27;;;;;;;3.90;1.40;;;21.70;50.80;;;;;;5076424;28;20029;-49
2020/12/12 09:53:54;;;;;;;3.60;1.70;;;21.70;50.90;;;;;;5075813;28;20017;-49
2020/12/12 09:56:21;;;;;;;3.63;1.70;;;21.60;50.90;;;;;;5076204;28;20070;-49
2020/12/12 09:58:48;;;;;;;4.57;1.67;;;21.50;50.90;;;;;;5076330;28;20028;-49
2020/12/12 10:01:15;;;;;;;3.05;1.60;;;21.50;51.00;;;;;;5075957;28;20403;-48
2020/12/12 10:03:42;;;;;;;3.22;1.80;;;21.50;51.10;;;;;;5076536;28;20024;-48
2020/12/12 10:06:10;;;;;;;3.83;1.60;;;21.40;51.20;;;;;;5076533;28;20107;-48
2020/12/12 10:08:37;;;;;;;3.65;1.75;;;21.30;51.20;;;;;;5076141;28;20020;-48
2020/12/12 10:11:05;;;;;;;4.30;1.92;;;21.30;51.40;;;;;;5076012;28;20044;-48
2020/12/12 10:13:31;;;;;;;8.05;1.90;;;21.20;51.50;;;;;;5075765;28;20032;-48
2020/12/12 10:15:58;;;;;;;2.88;1.88;;;21.20;51.60;;;;;;5074217;28;20025;-49
2020/12/12 10:18:25;;;;;;;4.18;1.60;;;21.10;51.60;;;;;;5076017;28;20341;-48
2020/12/12 10:20:52;;;;;;;3.08;1.80;;;21.00;51.70;;;;;;5075750;28;20031;-49
2020/12/12 10:23:18;;;;;;;3.75;2.10;;;21.00;51.90;;;;;;5074730;28;20040;-49
2020/12/12 10:25:45;;;;;;;3.08;1.90;;;20.90;51.90;;;;;;5076154;28;20031;-49
2020/12/12 10:28:11;;;;;;;3.03;1.90;;;20.90;52.10;;;;;;5076135;28;20020;-48
2020/12/12 10:30:38;;;;;;;3.22;1.90;;;20.80;52.10;;;;;;5075281;28;20039;-48
2020/12/12 10:33:04;;;;;;;3.13;2.00;;;20.80;52.20;;;;;;5075932;28;20528;-48
2020/12/12 10:35:31;;;;;;;3.75;1.90;;;20.70;52.30;;;;;;5075028;28;20028;-48
2020/12/12 10:37:59;;;;;;;3.60;2.08;;;20.70;52.40;;;;;;5075736;28;20036;-49
2020/12/12 10:40:34;;;;;;;2.88;2.08;;;20.60;52.50;;;;;;5075841;28;20094;-49
2020/12/12 10:43:03;;;;;;;3.63;2.13;;;20.60;52.60;;;;;;5075069;28;20063;-49
2020/12/12 10:45:29;;;;;;;3.53;2.03;;;20.50;52.60;;;;;;5075352;28;20117;-49
2020/12/12 10:47:56;;;;;;;4.32;1.98;;;20.50;52.70;;;;;;5075481;28;20388;-48
2020/12/12 10:50:22;;;;;;;4.88;2.10;;;20.40;52.80;;;;;;5074969;28;20020;-49
2020/12/12 10:52:51;;;;;;;2.65;1.85;;;20.30;53.50;;;;;;5075440;28;20031;-50
2020/12/12 10:55:17;;;;;;;3.45;2.15;;;20.30;52.90;;;;;;5075600;28;20017;-48
2020/12/12 10:57:44;;;;;;;4.30;2.47;;;20.20;52.90;;;;;;5075279;28;20399;-48
2020/12/12 11:00:11;;;;;;;4.47;2.30;;;20.20;53.00;;;;;;5075191;28;20030;-48
2020/12/12 11:02:38;;;;;;;5.10;2.08;;;20.10;53.10;;;;;;5075387;28;20040;-48
2020/12/12 11:05:05;;;;;;;4.05;2.60;;;20.10;53.30;;;;;;5075112;28;20024;-48
2020/12/12 11:07:32;;;;;;;3.72;2.22;;;20.00;53.30;;;;;;5074958;28;20362;-48
2020/12/12 11:09:58;;;;;;;3.50;2.28;;;20.00;53.50;;;;;;5075010;28;20029;-48
2020/12/12 11:12:25;;;;;;;4.18;2.53;;;19.90;53.60;;;;;;5074925;28;20024;-49
2020/12/12 11:14:54;;;;;;;3.22;2.40;;;19.90;53.80;;;;;;5074405;28;20024;-49
2020/12/12 11:17:21;;;;;;;4.88;2.90;;;19.80;53.90;;;;;;5074270;28;20025;-47
2020/12/12 11:19:48;;;;;;;3.03;2.20;;;19.80;54.10;;;;;;5075113;28;20024;-48
2020/12/12 11:22:14;;;;;;;3.63;2.67;;;19.80;54.20;;;;;;5075002;28;20037;-48
2020/12/12 11:24:41;;;;;;;3.78;2.50;;;19.70;54.20;;;;;;5074318;28;20481;-48
2020/12/12 11:27:07;;;;;;;3.80;2.50;;;19.60;54.20;;;;;;5057142;28;20031;-48
2020/12/12 11:29:34;;;;;;;3.22;2.22;;;19.60;54.30;;;;;;5074280;28;20379;-49
2020/12/12 11:32:00;;;;;;;7.18;3.20;;;19.50;54.40;;;;;;5074692;28;20045;-48
2020/12/12 11:34:35;;;;;;;3.58;2.38;;;19.50;54.70;;;;;;5074577;28;20020;-48
2020/12/12 11:48:20;;;;;;;3.58;2.47;;;19.20;54.70;;;;;;5092432;28;20456;-49
2020/12/12 11:50:46;;;;;;;6.75;3.20;;;19.20;54.70;;;;;;5091840;28;20031;-48
2020/12/12 11:53:13;;;;;;;4.03;2.70;;;19.10;54.80;;;;;;5083006;28;20163;-48
2020/12/12 11:55:39;;;;;;;5.28;2.90;;;19.10;55.00;;;;;;5073916;28;20021;-48
2020/12/12 11:58:06;;;;;;;6.00;2.90;;;19.00;54.90;;;;;;5074142;28;20016;-48
2020/12/12 12:00:32;;;;;;;6.55;2.85;;;19.00;55.00;;;;;;5074566;28;20024;-48
2020/12/12 12:02:59;;;;;;;6.30;3.20;;;19.00;55.00;;;;;;5073801;28;20032;-48
2020/12/12 12:05:25;;;;;;;6.35;3.10;;;18.90;55.00;;;;;;5073989;28;20111;-48
2020/12/12 12:07:52;;;;;;;4.97;3.00;;;18.90;55.00;;;;;;5074117;28;20028;-48
2020/12/12 12:12:45;;;;;;;7.78;2.97;;;18.80;55.70;;;;;;5074162;28;20031;-48
2020/12/12 12:15:11;;;;;;;5.20;2.80;;;18.80;55.10;;;;;;5072580;28;20016;-48
2020/12/12 12:17:38;;;;;;;4.78;2.78;;;18.80;55.10;;;;;;5071958;28;20048;-48
2020/12/12 12:20:06;;;;;;;4.55;3.00;;;18.70;55.10;;;;;;5074025;28;20016;-48
2020/12/12 12:22:34;;;;;;;6.05;2.75;;;18.70;55.20;;;;;;5073519;28;20034;-48
2020/12/12 12:25:00;;;;;;;6.00;2.65;;;18.60;55.10;;;;;;5073493;28;20453;-48
2020/12/12 12:27:26;;;;;;;5.47;3.20;;;18.60;55.20;;;;;;5073721;28;20017;-49
2020/12/12 12:29:53;;;;;;;6.88;3.13;;;18.60;55.20;;;;;;5073470;28;20020;-48
2020/12/12 12:32:20;;;;;;;6.13;2.90;;;18.50;55.20;;;;;;5073157;28;20089;-49
2020/12/12 12:34:46;;;;;;;6.30;2.60;;;18.50;55.20;;;;;;5073935;28;20031;-48
2020/12/12 12:37:13;;;;;;;5.00;2.90;;;18.40;55.20;;;;;;5073512;28;20013;-48
2020/12/12 12:39:39;;;;;;;4.03;2.63;;;18.40;55.30;;;;;;5073090;28;20024;-48
2020/12/12 12:42:06;;;;;;;6.60;3.05;;;18.40;55.40;;;;;;5073658;28;20078;-48
2020/12/12 12:44:33;;;;;;;3.50;2.40;;;18.40;55.40;;;;;;5072492;28;20025;-48
2020/12/12 12:47:00;;;;;;;6.30;2.88;;;18.30;55.40;;;;;;5073504;28;20021;-48
2020/12/12 12:49:26;;;;;;;6.63;2.80;;;18.30;55.40;;;;;;5073185;28;20070;-48
2020/12/12 12:51:53;;;;;;;4.68;2.42;;;18.30;55.50;;;;;;5073089;28;20449;-48
2020/12/12 12:54:20;;;;;;;5.55;3.00;;;18.20;55.50;;;;;;5072820;28;20035;-48
2020/12/12 12:56:46;;;;;;;5.72;2.50;;;18.20;55.60;;;;;;5072331;28;20036;-48
2020/12/12 12:59:13;;;;;;;5.00;2.50;;;18.20;55.60;;;;;;5072850;28;20028;-48
2020/12/12 13:01:40;;;;;;;3.40;2.40;;;18.10;55.60;;;;;;5072974;28;20119;-48